Пашковский

Карта отелей и гостиниц, располагающихся рядом с аэропортом Пашковский :

Пашковский
Краснодар
Краснодарский край 45° 2' 6" N, 39° 10' 12" E
Код аэродрома ИКАО
URKK
Код аэродрома RU
УРКК
Координаты
N45.03500° E039.17000°
Превышение над уровнем моря
36
Основная полоса
05R/23L
Курс магнитный
046/226
Длина основной ВПП
3000
Ширина основной ВПП
45
Покрытие основной ВПП
Твёрдое (асфальтобетон)
Освещение ВПП
Постоянное
Тип: 
Аэродром
Класс аэродрома: 
Международный
Принадлежность: 
ГА
Статус: 
Действующий
Сайт: 
http://www.basel.aero/
E-mail аэродрома: 
info@krr.basel.aero, airport@airport-krr.ru
Страна: 
Россия
Регион: 
Краснодарский край
Город: 
Краснодар
Дополнительная информация: 
Эксплуатант: ОАО «Международный аэропорт Краснодар». Входит в авиационный холдинг «Базэл Аэро». В настоящее время взлет и посадка самолетов осуществляются с временной ИВПП05С-23С (реконструированная МРД), производятся работы по строительству РД-2 и РД-3а. Заруливание самолетов на стоянки осуществляется с ИВПП 05L-23R
Схемы аэропортов: 
Погода: 

Авиационная погода в Краснодаре

Регион: 
Погода METAR: 
URKK 061030Z 09003MPS 9999 FEW/// 12/07 Q1018 R23L/290060 NOSIG RMK QFE760
Время наблюдения
2021-12-06T10:30:00Z
Температура C
12.0
Точка росы
7.0
Направление ветра
90
Скорость ветра (узлы)
6
Метео видимость
6.21
Явления погоды
Условия полета
Аэропорт подробнее: 

Найти трансфер

С помощью этой формы Вы можете найти трансфер из аэропорта Пашковский в город, аэропорт или вокзал:

Карта места

Javascript is required to view this map.

Погода в аэропортах:

Авиационная погода в Нижнем Новгороде

Регион: 
Погода METAR: 
UWGG 061030Z 09002MPS 9999 -SN OVC010 M09/M12 Q1026 R18L/420048 NOSIG
Время наблюдения
2021-12-06T10:30:00Z
Температура C
-9.0
Точка росы
-12.0
Направление ветра
90
Скорость ветра (узлы)
4
Метео видимость
6.21
Явления погоды
-SN
Условия полета
MVFR
Аэропорт подробнее: 

Авиационная погода в Гостомеле

Регион: 
Погода METAR: 
UKKM 061001Z 08002MPS 040V120 0350 0300NE R15/0450N FG VV001 00/M01 Q1011 NOSIG
Время наблюдения
2021-12-06T10:01:00Z
Температура C
0.0
Точка росы
-1.0
Направление ветра
80
Скорость ветра (узлы)
4
Метео видимость
0.22
Явления погоды
FG
Условия полета
LIFR
Аэропорт подробнее: 

Авиационная погода в Волгограде

Регион: 
Погода METAR: 
URWW 061030Z 08004MPS 0750 0450NE R06/1000N -FZDZ FZFG VV001 M00/M01 Q1020 R06/290057 NOSIG RMK QBB050 OBST OBSC
Время наблюдения
2021-12-06T10:30:00Z
Температура C
0.0
Точка росы
-1.0
Направление ветра
80
Скорость ветра (узлы)
8
Метео видимость
0.47
Явления погоды
-FZDZ FZFG
Условия полета
LIFR
Аэропорт подробнее: 

Авиационная погода в Ивано-Франковске

Регион: 
Погода METAR: 
UKLI 060800Z 11002MPS 1700 BR OVC004 00/00 Q1007 NOSIG
Время наблюдения
2021-12-06T08:00:00Z
Температура C
0.0
Точка росы
0.0
Направление ветра
110
Скорость ветра (узлы)
4
Метео видимость
1.06
Явления погоды
BR
Условия полета
LIFR
Аэропорт подробнее: